sensor_id;sensor_type;location;lat;lon;timestamp;pressure;altitude;pressure_sealevel;temperature;humidity
17615;BME280;8926;49.720;6.576;2023-07-28T00:00:29;98920.84;;;18.31;99.96
17615;BME280;8926;49.720;6.576;2023-07-28T00:02:54;98926.63;;;18.35;98.75
17615;BME280;8926;49.720;6.576;2023-07-28T00:05:19;98927.78;;;18.33;99.13
17615;BME280;8926;49.720;6.576;2023-07-28T00:07:44;98924.47;;;18.30;99.45
17615;BME280;8926;49.720;6.576;2023-07-28T00:10:10;98924.47;;;18.30;100.00
17615;BME280;8926;49.720;6.576;2023-07-28T00:12:36;98920.84;;;18.31;100.00
17615;BME280;8926;49.720;6.576;2023-07-28T00:15:01;98923.31;;;18.33;100.00
17615;BME280;8926;49.720;6.576;2023-07-28T00:17:26;98915.25;;;18.35;100.00
17615;BME280;8926;49.720;6.576;2023-07-28T00:19:52;98917.72;;;18.36;100.00
17615;BME280;8926;49.720;6.576;2023-07-28T00:22:17;98923.53;;;18.40;100.00
17615;BME280;8926;49.720;6.576;2023-07-28T00:24:42;98920.88;;;18.40;100.00
17615;BME280;8926;49.720;6.576;2023-07-28T00:27:07;98920.22;;;18.38;100.00
17615;BME280;8926;49.720;6.576;2023-07-28T00:29:33;98920.22;;;18.38;99.48
17615;BME280;8926;49.720;6.576;2023-07-28T00:31:58;98912.28;;;18.38;99.61
17615;BME280;8926;49.720;6.576;2023-07-28T00:34:23;98913.25;;;18.37;99.64
17615;BME280;8926;49.720;6.576;2023-07-28T00:36:48;98903.00;;;18.34;99.80
17615;BME280;8926;49.720;6.576;2023-07-28T00:39:14;98904.97;;;18.31;100.00
17615;BME280;8926;49.720;6.576;2023-07-28T00:41:39;98906.63;;;18.33;100.00
17615;BME280;8926;49.720;6.576;2023-07-28T00:44:04;98901.34;;;18.33;100.00
17615;BME280;8926;49.720;6.576;2023-07-28T00:46:30;98896.06;;;18.33;100.00
17615;BME280;8926;49.720;6.576;2023-07-28T00:48:56;98896.06;;;18.33;100.00
17615;BME280;8926;49.720;6.576;2023-07-28T00:51:21;98896.06;;;18.33;100.00
17615;BME280;8926;49.720;6.576;2023-07-28T00:53:46;98891.75;;;18.31;100.00
17615;BME280;8926;49.720;6.576;2023-07-28T00:56:12;98905.63;;;18.34;100.00
17615;BME280;8926;49.720;6.576;2023-07-28T00:58:38;98901.03;;;18.36;99.92
17615;BME280;8926;49.720;6.576;2023-07-28T01:01:04;98893.25;;;18.34;100.00
17615;BME280;8926;49.720;6.576;2023-07-28T01:03:29;98896.88;;;18.33;100.00
17615;BME280;8926;49.720;6.576;2023-07-28T01:06:04;98895.22;;;18.32;100.00
17615;BME280;8926;49.720;6.576;2023-07-28T01:08:38;98897.72;;;18.34;100.00
17615;BME280;8926;49.720;6.576;2023-07-28T01:11:07;98892.09;;;18.37;100.00
17615;BME280;8926;49.720;6.576;2023-07-28T01:13:32;98889.47;;;18.37;100.00
17615;BME280;8926;49.720;6.576;2023-07-28T01:15:57;98892.78;;;18.39;100.00
17615;BME280;8926;49.720;6.576;2023-07-28T01:18:26;98892.78;;;18.39;100.00
17615;BME280;8926;49.720;6.576;2023-07-28T01:20:52;98896.41;;;18.38;100.00
17615;BME280;8926;49.720;6.576;2023-07-28T01:23:40;98899.06;;;18.38;100.00
17615;BME280;8926;49.720;6.576;2023-07-28T01:26:11;98900.72;;;18.39;100.00
17615;BME280;8926;49.720;6.576;2023-07-28T01:28:39;98898.06;;;18.39;100.00
17615;BME280;8926;49.720;6.576;2023-07-28T01:31:06;98892.63;;;18.40;100.00
17615;BME280;8926;49.720;6.576;2023-07-28T01:33:32;98895.13;;;18.42;99.16
17615;BME280;8926;49.720;6.576;2023-07-28T01:35:58;98893.78;;;18.38;100.00
17615;BME280;8926;49.720;6.576;2023-07-28T01:38:25;98893.09;;;18.36;100.00
17615;BME280;8926;49.720;6.576;2023-07-28T01:40:50;98890.44;;;18.36;100.00
17615;BME280;8926;49.720;6.576;2023-07-28T01:43:16;98894.75;;;18.37;100.00
17615;BME280;8926;49.720;6.576;2023-07-28T01:45:41;98894.06;;;18.35;100.00
17615;BME280;8926;49.720;6.576;2023-07-28T01:48:06;98885.16;;;18.36;100.00
17615;BME280;8926;49.720;6.576;2023-07-28T01:50:34;98892.09;;;18.37;100.00
17615;BME280;8926;49.720;6.576;2023-07-28T01:52:59;98894.91;;;18.35;100.00
17615;BME280;8926;49.720;6.576;2023-07-28T01:55:25;98886.81;;;18.37;100.00
17615;BME280;8926;49.720;6.576;2023-07-28T01:57:59;98888.47;;;18.38;100.00
17615;BME280;8926;49.720;6.576;2023-07-28T02:00:25;98884.84;;;18.39;100.00
17615;BME280;8926;49.720;6.576;2023-07-28T02:02:51;98898.91;;;18.39;100.00
17615;BME280;8926;49.720;6.576;2023-07-28T02:05:17;98902.38;;;18.40;100.00
17615;BME280;8926;49.720;6.576;2023-07-28T02:07:42;98903.88;;;18.42;100.00
17615;BME280;8926;49.720;6.576;2023-07-28T02:10:08;98897.44;;;18.45;100.00
17615;BME280;8926;49.720;6.576;2023-07-28T02:12:35;98893.16;;;18.44;100.00
17615;BME280;8926;49.720;6.576;2023-07-28T02:15:00;98903.38;;;18.47;100.00
17615;BME280;8926;49.720;6.576;2023-07-28T02:17:26;98899.75;;;18.48;99.75
17615;BME280;8926;49.720;6.576;2023-07-28T02:19:51;98905.03;;;18.48;100.00
17615;BME280;8926;49.720;6.576;2023-07-28T02:22:16;98896.13;;;18.49;99.39
17615;BME280;8926;49.720;6.576;2023-07-28T02:24:41;98899.06;;;18.46;99.07
17615;BME280;8926;49.720;6.576;2023-07-28T02:27:07;98900.41;;;18.42;100.00
17615;BME280;8926;49.720;6.576;2023-07-28T02:29:32;98902.06;;;18.43;100.00
17615;BME280;8926;49.720;6.576;2023-07-28T02:31:57;98900.41;;;18.42;100.00
17615;BME280;8926;49.720;6.576;2023-07-28T02:34:23;98902.91;;;18.43;100.00
17615;BME280;8926;49.720;6.576;2023-07-28T02:36:48;98902.75;;;18.45;100.00
17615;BME280;8926;49.720;6.576;2023-07-28T02:39:13;98902.56;;;18.46;100.00
17615;BME280;8926;49.720;6.576;2023-07-28T02:41:38;98896.13;;;18.49;100.00
17615;BME280;8926;49.720;6.576;2023-07-28T02:44:04;98900.09;;;18.45;100.00
17615;BME280;8926;49.720;6.576;2023-07-28T02:46:29;98907.69;;;18.48;100.00
17615;BME280;8926;49.720;6.576;2023-07-28T02:48:55;98898.09;;;18.47;100.00
17615;BME280;8926;49.720;6.576;2023-07-28T02:51:20;98896.13;;;18.49;100.00
17615;BME280;8926;49.720;6.576;2023-07-28T02:53:45;98905.41;;;18.53;100.00
17615;BME280;8926;49.720;6.576;2023-07-28T02:56:11;98901.94;;;18.52;100.00
17615;BME280;8926;49.720;6.576;2023-07-28T02:58:36;98899.81;;;18.56;100.00
17615;BME280;8926;49.720;6.576;2023-07-28T03:01:01;98903.13;;;18.58;100.00
17615;BME280;8926;49.720;6.576;2023-07-28T03:03:26;98906.47;;;18.60;100.00
17615;BME280;8926;49.720;6.576;2023-07-28T03:05:52;98905.75;;;18.58;100.00
17615;BME280;8926;49.720;6.576;2023-07-28T03:08:19;98910.06;;;18.59;100.00
17615;BME280;8926;49.720;6.576;2023-07-28T03:10:45;98903.81;;;18.60;99.89
17615;BME280;8926;49.720;6.576;2023-07-28T03:13:10;98911.75;;;18.60;99.73
17615;BME280;8926;49.720;6.576;2023-07-28T03:15:35;98914.41;;;18.60;99.14
17615;BME280;8926;49.720;6.576;2023-07-28T03:18:01;98921.63;;;18.58;99.16
17615;BME280;8926;49.720;6.576;2023-07-28T03:20:26;98919.31;;;18.55;100.00
17615;BME280;8926;49.720;6.576;2023-07-28T03:22:51;98915.97;;;18.53;100.00
17615;BME280;8926;49.720;6.576;2023-07-28T03:25:17;98925.59;;;18.54;100.00
17615;BME280;8926;49.720;6.576;2023-07-28T03:27:43;98927.25;;;18.55;99.52
17615;BME280;8926;49.720;6.576;2023-07-28T03:30:08;98924.59;;;18.55;99.32
17615;BME280;8926;49.720;6.576;2023-07-28T03:32:36;98929.53;;;18.50;99.52
17615;BME280;8926;49.720;6.576;2023-07-28T03:35:03;98932.16;;;18.50;99.87
17615;BME280;8926;49.720;6.576;2023-07-28T03:37:33;98925.53;;;18.46;100.00
17615;BME280;8926;49.720;6.576;2023-07-28T03:39:58;98926.53;;;18.45;100.00
17615;BME280;8926;49.720;6.576;2023-07-28T03:42:23;98927.53;;;18.44;100.00
17615;BME280;8926;49.720;6.576;2023-07-28T03:44:49;98924.88;;;18.44;100.00
17615;BME280;8926;49.720;6.576;2023-07-28T03:47:14;98923.22;;;18.43;100.00
17615;BME280;8926;49.720;6.576;2023-07-28T03:49:39;98927.16;;;18.39;100.00
17615;BME280;8926;49.720;6.576;2023-07-28T03:52:05;98924.16;;;18.34;100.00
17615;BME280;8926;49.720;6.576;2023-07-28T03:54:30;98926.13;;;18.31;100.00
17615;BME280;8926;49.720;6.576;2023-07-28T03:56:56;98931.41;;;18.31;100.00
17615;BME280;8926;49.720;6.576;2023-07-28T03:59:21;98925.44;;;18.29;100.00
17615;BME280;8926;49.720;6.576;2023-07-28T04:01:46;98929.75;;;18.30;100.00
17615;BME280;8926;49.720;6.576;2023-07-28T04:04:13;98931.72;;;18.28;100.00
17615;BME280;8926;49.720;6.576;2023-07-28T04:06:46;98933.38;;;18.29;100.00
17615;BME280;8926;49.720;6.576;2023-07-28T04:09:14;98937.69;;;18.30;100.00
17615;BME280;8926;49.720;6.576;2023-07-28T04:11:40;98945.31;;;18.34;100.00
17615;BME280;8926;49.720;6.576;2023-07-28T04:14:05;98947.81;;;18.35;100.00
17615;BME280;8926;49.720;6.576;2023-07-28T04:16:30;98941.69;;;18.35;100.00
17615;BME280;8926;49.720;6.576;2023-07-28T04:18:56;98941.38;;;18.38;100.00
17615;BME280;8926;49.720;6.576;2023-07-28T04:21:21;98932.75;;;18.36;100.00
17615;BME280;8926;49.720;6.576;2023-07-28T04:23:47;98937.75;;;18.39;100.00
17615;BME280;8926;49.720;6.576;2023-07-28T04:26:12;98946.34;;;18.41;100.00
17615;BME280;8926;49.720;6.576;2023-07-28T04:28:37;98949.97;;;18.40;100.00
17615;BME280;8926;49.720;6.576;2023-07-28T04:31:03;98950.81;;;18.40;100.00
17615;BME280;8926;49.720;6.576;2023-07-28T04:33:28;98949.97;;;18.40;100.00
17615;BME280;8926;49.720;6.576;2023-07-28T04:35:53;98944.69;;;18.40;100.00
17615;BME280;8926;49.720;6.576;2023-07-28T04:38:19;98947.34;;;18.40;100.00
17615;BME280;8926;49.720;6.576;2023-07-28T04:40:44;98946.50;;;18.39;100.00
17615;BME280;8926;49.720;6.576;2023-07-28T04:43:10;98947.19;;;18.41;100.00
17615;BME280;8926;49.720;6.576;2023-07-28T04:45:35;98953.00;;;18.45;100.00
17615;BME280;8926;49.720;6.576;2023-07-28T04:48:01;98957.94;;;18.48;100.00
17615;BME280;8926;49.720;6.576;2023-07-28T04:50:26;98954.31;;;18.49;100.00
17615;BME280;8926;49.720;6.576;2023-07-28T04:52:52;98959.28;;;18.52;100.00
17615;BME280;8926;49.720;6.576;2023-07-28T04:55:17;98957.31;;;18.54;100.00
17615;BME280;8926;49.720;6.576;2023-07-28T04:57:43;98957.00;;;18.57;99.58
17615;BME280;8926;49.720;6.576;2023-07-28T05:00:08;98953.38;;;18.58;99.58
17615;BME280;8926;49.720;6.576;2023-07-28T05:02:34;98951.72;;;18.57;99.76
17615;BME280;8926;49.720;6.576;2023-07-28T05:04:59;98947.25;;;18.57;100.00
17615;BME280;8926;49.720;6.576;2023-07-28T05:07:24;98953.38;;;18.58;100.00
17615;BME280;8926;49.720;6.576;2023-07-28T05:09:50;98953.25;;;18.59;100.00
17615;BME280;8926;49.720;6.576;2023-07-28T05:12:15;98966.19;;;18.62;100.00
17615;BME280;8926;49.720;6.576;2023-07-28T05:14:40;98963.06;;;18.67;100.00
17615;BME280;8926;49.720;6.576;2023-07-28T05:17:06;98957.47;;;18.70;100.00
17615;BME280;8926;49.720;6.576;2023-07-28T05:19:31;98956.81;;;18.76;99.39
17615;BME280;8926;49.720;6.576;2023-07-28T05:21:56;98961.78;;;18.79;98.62
17615;BME280;8926;49.720;6.576;2023-07-28T05:24:22;98965.72;;;18.75;99.13
17615;BME280;8926;49.720;6.576;2023-07-28T05:26:47;98965.06;;;18.73;99.72
17615;BME280;8926;49.720;6.576;2023-07-28T05:29:12;98955.97;;;18.76;99.20
17615;BME280;8926;49.720;6.576;2023-07-28T05:31:38;98968.22;;;18.77;99.74
17615;BME280;8926;49.720;6.576;2023-07-28T05:34:03;98969.06;;;18.77;99.96
17615;BME280;8926;49.720;6.576;2023-07-28T05:36:29;98962.78;;;18.78;99.29
17615;BME280;8926;49.720;6.576;2023-07-28T05:38:54;98966.91;;;18.81;99.13
17615;BME280;8926;49.720;6.576;2023-07-28T05:41:21;98969.56;;;18.81;98.31
17615;BME280;8926;49.720;6.576;2023-07-28T05:43:46;98969.56;;;18.81;98.47
17615;BME280;8926;49.720;6.576;2023-07-28T05:46:12;98970.41;;;18.81;98.91
17615;BME280;8926;49.720;6.576;2023-07-28T05:48:37;98972.38;;;18.79;99.07
17615;BME280;8926;49.720;6.576;2023-07-28T05:51:02;98978.50;;;18.80;99.50
17615;BME280;8926;49.720;6.576;2023-07-28T05:53:28;98980.97;;;18.81;99.54
17615;BME280;8926;49.720;6.576;2023-07-28T05:55:53;98980.97;;;18.81;98.79
17615;BME280;8926;49.720;6.576;2023-07-28T05:58:18;98980.00;;;18.82;98.81
17615;BME280;8926;49.720;6.576;2023-07-28T06:00:44;98986.28;;;18.81;99.03
17615;BME280;8926;49.720;6.576;2023-07-28T06:03:10;98992.91;;;18.85;98.63
17615;BME280;8926;49.720;6.576;2023-07-28T06:05:38;98993.91;;;18.84;99.65
17615;BME280;8926;49.720;6.576;2023-07-28T06:08:03;98999.19;;;18.84;99.68
17615;BME280;8926;49.720;6.576;2023-07-28T06:10:28;98993.75;;;18.86;100.00
17615;BME280;8926;49.720;6.576;2023-07-28T06:12:54;98998.72;;;18.89;99.57
17615;BME280;8926;49.720;6.576;2023-07-28T06:15:19;98995.63;;;18.93;100.00
17615;BME280;8926;49.720;6.576;2023-07-28T06:17:45;98996.63;;;19.01;98.63
17615;BME280;8926;49.720;6.576;2023-07-28T06:20:10;98996.31;;;19.04;99.20
17615;BME280;8926;49.720;6.576;2023-07-28T06:22:35;98994.00;;;19.09;99.78
17615;BME280;8926;49.720;6.576;2023-07-28T06:25:01;98998.69;;;19.15;99.93
17615;BME280;8926;49.720;6.576;2023-07-28T06:27:26;99001.84;;;19.18;99.65
17615;BME280;8926;49.720;6.576;2023-07-28T06:29:52;99004.16;;;19.21;98.63
17615;BME280;8926;49.720;6.576;2023-07-28T06:32:17;99003.34;;;19.21;98.45
17615;BME280;8926;49.720;6.576;2023-07-28T06:34:42;98998.69;;;19.23;99.41
17615;BME280;8926;49.720;6.576;2023-07-28T06:37:08;99001.34;;;19.23;99.35
17615;BME280;8926;49.720;6.576;2023-07-28T06:39:33;99001.34;;;19.23;99.28
17615;BME280;8926;49.720;6.576;2023-07-28T06:41:58;99006.31;;;19.26;99.10
17615;BME280;8926;49.720;6.576;2023-07-28T06:44:24;99017.72;;;19.26;99.13
17615;BME280;8926;49.720;6.576;2023-07-28T06:46:49;99010.47;;;19.28;98.85
17615;BME280;8926;49.720;6.576;2023-07-28T06:49:15;99011.28;;;19.29;98.25
17615;BME280;8926;49.720;6.576;2023-07-28T06:51:41;99019.91;;;19.31;99.04
17615;BME280;8926;49.720;6.576;2023-07-28T06:54:06;99015.28;;;19.33;98.48
17615;BME280;8926;49.720;6.576;2023-07-28T06:56:36;99009.00;;;19.34;97.51
17615;BME280;8926;49.720;6.576;2023-07-28T06:59:01;99018.91;;;19.32;98.02
17615;BME280;8926;49.720;6.576;2023-07-28T07:01:27;99013.28;;;19.27;98.01
17615;BME280;8926;49.720;6.576;2023-07-28T07:03:52;99021.88;;;19.29;97.95
17615;BME280;8926;49.720;6.576;2023-07-28T07:06:18;99023.53;;;19.30;98.71
17615;BME280;8926;49.720;6.576;2023-07-28T07:08:43;99025.22;;;19.31;98.62
17615;BME280;8926;49.720;6.576;2023-07-28T07:11:08;99024.88;;;19.34;99.01
17615;BME280;8926;49.720;6.576;2023-07-28T07:13:34;99016.78;;;19.36;98.87
17615;BME280;8926;49.720;6.576;2023-07-28T07:15:59;99019.28;;;19.37;98.52
17615;BME280;8926;49.720;6.576;2023-07-28T07:18:25;99022.41;;;19.32;99.50
17615;BME280;8926;49.720;6.576;2023-07-28T07:20:51;99029.66;;;19.30;99.49
17615;BME280;8926;49.720;6.576;2023-07-28T07:23:16;99032.47;;;19.29;99.70
17615;BME280;8926;49.720;6.576;2023-07-28T07:25:41;99030.81;;;19.28;100.00
17615;BME280;8926;49.720;6.576;2023-07-28T07:28:07;99037.78;;;19.29;99.60
17615;BME280;8926;49.720;6.576;2023-07-28T07:30:35;99044.72;;;19.30;100.00
17615;BME280;8926;49.720;6.576;2023-07-28T07:33:00;99041.78;;;19.33;100.00
17615;BME280;8926;49.720;6.576;2023-07-28T07:35:26;99042.44;;;19.35;100.00
17615;BME280;8926;49.720;6.576;2023-07-28T07:37:51;99042.44;;;19.35;100.00
17615;BME280;8926;49.720;6.576;2023-07-28T07:40:16;99044.09;;;19.36;100.00
17615;BME280;8926;49.720;6.576;2023-07-28T07:42:43;99047.44;;;19.38;100.00
17615;BME280;8926;49.720;6.576;2023-07-28T07:45:13;99050.44;;;19.43;100.00
17615;BME280;8926;49.720;6.576;2023-07-28T07:47:42;99050.94;;;19.47;100.00
17615;BME280;8926;49.720;6.576;2023-07-28T07:50:08;99058.41;;;19.51;100.00
17615;BME280;8926;49.720;6.576;2023-07-28T07:52:35;99053.63;;;19.55;99.90
17615;BME280;8926;49.720;6.576;2023-07-28T07:55:01;99048.84;;;19.58;99.48
17615;BME280;8926;49.720;6.576;2023-07-28T07:57:26;99049.66;;;19.59;99.66
17615;BME280;8926;49.720;6.576;2023-07-28T07:59:51;99053.50;;;19.64;98.76
17615;BME280;8926;49.720;6.576;2023-07-28T08:02:17;99054.16;;;19.67;99.36
17615;BME280;8926;49.720;6.576;2023-07-28T08:04:42;99062.78;;;19.69;98.70
17615;BME280;8926;49.720;6.576;2023-07-28T08:07:08;99065.13;;;19.72;98.80
17615;BME280;8926;49.720;6.576;2023-07-28T08:09:33;99056.19;;;19.73;98.28
17615;BME280;8926;49.720;6.576;2023-07-28T08:11:59;99063.16;;;19.74;98.62
17615;BME280;8926;49.720;6.576;2023-07-28T08:14:25;99059.50;;;19.75;97.70
17615;BME280;8926;49.720;6.576;2023-07-28T08:16:50;99064.13;;;19.73;97.45
17615;BME280;8926;49.720;6.576;2023-07-28T08:19:15;99058.47;;;19.68;97.77
17615;BME280;8926;49.720;6.576;2023-07-28T08:21:41;99062.13;;;19.67;98.11
17615;BME280;8926;49.720;6.576;2023-07-28T08:24:06;99063.47;;;19.71;97.75
17615;BME280;8926;49.720;6.576;2023-07-28T08:26:32;99053.69;;;19.71;98.33
17615;BME280;8926;49.720;6.576;2023-07-28T08:28:57;99060.13;;;19.77;97.82
17615;BME280;8926;49.720;6.576;2023-07-28T08:31:22;99064.13;;;19.81;97.68
17615;BME280;8926;49.720;6.576;2023-07-28T08:33:48;99063.81;;;19.84;97.33
17615;BME280;8926;49.720;6.576;2023-07-28T08:36:13;99064.97;;;19.81;97.86
17615;BME280;8926;49.720;6.576;2023-07-28T08:38:38;99067.44;;;19.83;98.00
17615;BME280;8926;49.720;6.576;2023-07-28T08:41:04;99070.44;;;19.88;97.80
17615;BME280;8926;49.720;6.576;2023-07-28T08:43:30;99068.78;;;19.87;97.06
17615;BME280;8926;49.720;6.576;2023-07-28T08:45:56;99070.44;;;19.88;97.58
17615;BME280;8926;49.720;6.576;2023-07-28T08:48:23;99076.59;;;19.88;97.77
17615;BME280;8926;49.720;6.576;2023-07-28T08:50:48;99070.13;;;19.91;97.54
17615;BME280;8926;49.720;6.576;2023-07-28T08:53:13;99079.06;;;19.90;97.56
17615;BME280;8926;49.720;6.576;2023-07-28T08:55:39;99078.06;;;19.83;97.52
17615;BME280;8926;49.720;6.576;2023-07-28T08:58:33;99076.25;;;19.91;98.36
17615;BME280;8926;49.720;6.576;2023-07-28T09:00:59;99079.09;;;19.98;97.77
17615;BME280;8926;49.720;6.576;2023-07-28T09:03:28;99072.44;;;20.02;96.97
17615;BME280;8926;49.720;6.576;2023-07-28T09:06:03;99082.41;;;20.08;97.26
17615;BME280;8926;49.720;6.576;2023-07-28T09:08:31;99066.16;;;20.11;97.18
17615;BME280;8926;49.720;6.576;2023-07-28T09:11:01;99072.50;;;20.18;97.51
17615;BME280;8926;49.720;6.576;2023-07-28T09:13:39;99073.66;;;20.24;97.07
17615;BME280;8926;49.720;6.576;2023-07-28T09:16:16;99075.16;;;20.26;96.78
17615;BME280;8926;49.720;6.576;2023-07-28T09:18:41;99068.81;;;20.27;96.28
17615;BME280;8926;49.720;6.576;2023-07-28T09:21:16;99061.88;;;20.34;95.44
17615;BME280;8926;49.720;6.576;2023-07-28T09:23:41;99068.84;;;20.36;94.04
17615;BME280;8926;49.720;6.576;2023-07-28T09:26:06;99073.84;;;20.39;94.70
17615;BME280;8926;49.720;6.576;2023-07-28T09:28:40;99070.69;;;20.43;95.03
17615;BME280;8926;49.720;6.576;2023-07-28T09:31:06;99074.53;;;20.49;92.90
17615;BME280;8926;49.720;6.576;2023-07-28T09:33:34;99074.19;;;20.52;93.06
17615;BME280;8926;49.720;6.576;2023-07-28T09:36:10;99072.50;;;20.59;93.01
17615;BME280;8926;49.720;6.576;2023-07-28T09:38:37;99078.97;;;20.64;92.28
17615;BME280;8926;49.720;6.576;2023-07-28T09:41:04;99078.16;;;20.72;91.17
17615;BME280;8926;49.720;6.576;2023-07-28T09:43:35;99078.81;;;20.74;91.14
17615;BME280;8926;49.720;6.576;2023-07-28T09:46:06;99085.78;;;20.75;91.45
17615;BME280;8926;49.720;6.576;2023-07-28T09:48:32;99082.78;;;20.78;91.87
17615;BME280;8926;49.720;6.576;2023-07-28T09:51:02;99084.41;;;20.79;91.93
17615;BME280;8926;49.720;6.576;2023-07-28T09:53:32;99086.41;;;20.85;91.74
17615;BME280;8926;49.720;6.576;2023-07-28T09:56:00;99093.38;;;20.86;91.79
17615;BME280;8926;49.720;6.576;2023-07-28T09:58:29;99081.94;;;20.86;91.78
17615;BME280;8926;49.720;6.576;2023-07-28T10:00:58;99090.88;;;20.85;91.19
17615;BME280;8926;49.720;6.576;2023-07-28T10:03:24;99088.06;;;20.86;90.50
17615;BME280;8926;49.720;6.576;2023-07-28T10:05:50;99089.38;;;20.90;90.18
17615;BME280;8926;49.720;6.576;2023-07-28T10:08:16;99083.75;;;20.93;90.06
17615;BME280;8926;49.720;6.576;2023-07-28T10:10:41;99089.88;;;20.94;90.13
17615;BME280;8926;49.720;6.576;2023-07-28T10:13:19;99085.75;;;20.91;90.27
17615;BME280;8926;49.720;6.576;2023-07-28T10:15:46;99092.72;;;20.92;90.48
17615;BME280;8926;49.720;6.576;2023-07-28T10:18:12;99084.75;;;20.92;90.48
17615;BME280;8926;49.720;6.576;2023-07-28T10:20:39;99095.38;;;20.92;90.32
17615;BME280;8926;49.720;6.576;2023-07-28T10:25:38;99098.69;;;20.86;91.02
17615;BME280;8926;49.720;6.576;2023-07-28T10:28:25;99101.50;;;20.93;91.61
17615;BME280;8926;49.720;6.576;2023-07-28T10:30:53;99097.31;;;21.07;90.97
17615;BME280;8926;49.720;6.576;2023-07-28T10:36:11;99100.91;;;21.38;89.04
17615;BME280;8926;49.720;6.576;2023-07-28T10:38:37;99096.91;;;21.42;88.86
17615;BME280;8926;49.720;6.576;2023-07-28T10:43:32;99091.91;;;21.47;87.91
17615;BME280;8926;49.720;6.576;2023-07-28T10:45:57;99096.06;;;21.50;87.75
17615;BME280;8926;49.720;6.576;2023-07-28T10:48:23;99099.88;;;21.47;86.20
17615;BME280;8926;49.720;6.576;2023-07-28T10:50:49;99098.25;;;21.38;86.00
17615;BME280;8926;49.720;6.576;2023-07-28T10:53:15;99097.75;;;21.34;86.84
17615;BME280;8926;49.720;6.576;2023-07-28T10:55:40;99096.59;;;21.37;86.91
17615;BME280;8926;49.720;6.576;2023-07-28T10:58:06;99089.63;;;21.36;86.43
17615;BME280;8926;49.720;6.576;2023-07-28T11:00:31;99101.22;;;21.43;86.66
17615;BME280;8926;49.720;6.576;2023-07-28T11:02:57;99093.34;;;21.58;86.34
17615;BME280;8926;49.720;6.576;2023-07-28T11:05:27;99086.78;;;21.77;85.39
17615;BME280;8926;49.720;6.576;2023-07-28T11:07:57;99089.38;;;21.85;84.39
17615;BME280;8926;49.720;6.576;2023-07-28T11:10:24;99083.03;;;21.94;84.84
17615;BME280;8926;49.720;6.576;2023-07-28T11:12:51;99093.31;;;21.97;84.42
17615;BME280;8926;49.720;6.576;2023-07-28T11:15:17;99087.03;;;21.90;84.65
17615;BME280;8926;49.720;6.576;2023-07-28T11:17:47;99084.78;;;21.79;83.78
17615;BME280;8926;49.720;6.576;2023-07-28T11:20:17;99091.44;;;21.75;84.50
17615;BME280;8926;49.720;6.576;2023-07-28T11:22:51;99092.31;;;21.67;84.57
17615;BME280;8926;49.720;6.576;2023-07-28T11:25:17;99097.50;;;21.60;84.71
17615;BME280;8926;49.720;6.576;2023-07-28T11:27:44;99094.84;;;21.60;85.25
17615;BME280;8926;49.720;6.576;2023-07-28T11:30:12;99090.16;;;21.62;85.68
17615;BME280;8926;49.720;6.576;2023-07-28T11:32:37;99095.16;;;21.65;85.57
17615;BME280;8926;49.720;6.576;2023-07-28T11:37:31;99091.13;;;21.70;86.04
17615;BME280;8926;49.720;6.576;2023-07-28T11:39:59;99099.50;;;21.58;86.28
17615;BME280;8926;49.720;6.576;2023-07-28T11:42:26;99096.19;;;21.56;86.90
17615;BME280;8926;49.720;6.576;2023-07-28T11:44:52;99095.22;;;21.49;87.38
17615;BME280;8926;49.720;6.576;2023-07-28T11:47:18;99090.59;;;21.43;87.74
17615;BME280;8926;49.720;6.576;2023-07-28T11:49:47;99094.59;;;21.39;87.85
17615;BME280;8926;49.720;6.576;2023-07-28T11:52:12;99094.94;;;21.36;88.12
17615;BME280;8926;49.720;6.576;2023-07-28T11:54:38;99095.75;;;21.37;88.90
17615;BME280;8926;49.720;6.576;2023-07-28T11:57:03;99096.59;;;21.37;88.43
17615;BME280;8926;49.720;6.576;2023-07-28T11:59:28;99098.09;;;21.31;88.58
17615;BME280;8926;49.720;6.576;2023-07-28T12:02:12;99097.63;;;21.28;88.62
17615;BME280;8926;49.720;6.576;2023-07-28T12:04:38;99089.00;;;21.26;89.03
17615;BME280;8926;49.720;6.576;2023-07-28T12:09:52;99086.78;;;21.38;88.58
17615;BME280;8926;49.720;6.576;2023-07-28T12:12:18;99092.25;;;21.44;87.04
17615;BME280;8926;49.720;6.576;2023-07-28T12:14:44;99091.56;;;21.50;86.44
17615;BME280;8926;49.720;6.576;2023-07-28T12:17:16;99083.19;;;21.61;85.92
17615;BME280;8926;49.720;6.576;2023-07-28T12:20:01;99093.16;;;21.67;84.93
17615;BME280;8926;49.720;6.576;2023-07-28T12:22:31;99090.78;;;21.73;84.67
17615;BME280;8926;49.720;6.576;2023-07-28T12:24:57;99091.38;;;21.83;85.15
17615;BME280;8926;49.720;6.576;2023-07-28T12:27:22;99097.00;;;21.88;84.42
17615;BME280;8926;49.720;6.576;2023-07-28T12:29:50;99103.34;;;21.87;83.81
17615;BME280;8926;49.720;6.576;2023-07-28T12:32:16;99092.41;;;21.82;83.89
17615;BME280;8926;49.720;6.576;2023-07-28T12:34:41;99088.44;;;21.78;84.02
17615;BME280;8926;49.720;6.576;2023-07-28T12:37:06;99086.44;;;21.80;83.98
17615;BME280;8926;49.720;6.576;2023-07-28T12:39:32;99090.69;;;21.89;84.31
17615;BME280;8926;49.720;6.576;2023-07-28T12:41:58;99094.69;;;21.85;83.45
17615;BME280;8926;49.720;6.576;2023-07-28T12:44:23;99095.69;;;21.84;83.84
17615;BME280;8926;49.720;6.576;2023-07-28T12:46:49;99103.69;;;21.84;84.47
17615;BME280;8926;49.720;6.576;2023-07-28T12:49:14;99095.78;;;21.76;84.67
17615;BME280;8926;49.720;6.576;2023-07-28T12:51:40;99099.78;;;21.72;84.97
17615;BME280;8926;49.720;6.576;2023-07-28T12:54:05;99102.13;;;21.66;85.05
17615;BME280;8926;49.720;6.576;2023-07-28T12:56:30;99112.44;;;21.61;85.20
17615;BME280;8926;49.720;6.576;2023-07-28T12:58:56;99115.09;;;21.61;85.40
17615;BME280;8926;49.720;6.576;2023-07-28T13:01:21;99113.09;;;21.63;84.49
17615;BME280;8926;49.720;6.576;2023-07-28T13:03:46;99115.41;;;21.66;84.55
17615;BME280;8926;49.720;6.576;2023-07-28T13:06:12;99110.75;;;21.68;84.51
17615;BME280;8926;49.720;6.576;2023-07-28T13:08:37;99112.06;;;21.73;83.78
17615;BME280;8926;49.720;6.576;2023-07-28T13:11:03;99104.75;;;21.75;84.12
17615;BME280;8926;49.720;6.576;2023-07-28T13:13:28;99111.97;;;21.89;84.15
17615;BME280;8926;49.720;6.576;2023-07-28T13:15:55;99108.31;;;21.90;83.32